createdAt,value
2018-12-23T00:01:50.464Z,9.97
2018-12-23T00:04:20.607Z,13.50
2018-12-23T00:06:50.432Z,11.20
2018-12-23T00:09:20.212Z,13.27
2018-12-23T00:11:50.032Z,14.90
2018-12-23T00:14:20.217Z,12.90
2018-12-23T00:16:50.073Z,14.83
2018-12-23T00:19:19.916Z,10.93
2018-12-23T00:21:49.740Z,14.07
2018-12-23T00:24:19.599Z,14.90
2018-12-23T00:26:49.399Z,15.57
2018-12-23T00:29:19.268Z,11.43
2018-12-23T00:31:49.080Z,12.47
2018-12-23T00:34:18.976Z,15.93
2018-12-23T00:36:48.872Z,17.30
2018-12-23T00:39:18.656Z,11.97
2018-12-23T00:41:48.487Z,11.73
2018-12-23T00:44:18.275Z,9.90
2018-12-23T00:46:48.111Z,14.57
2018-12-23T00:49:17.972Z,14.17
2018-12-23T00:51:47.905Z,15.43
2018-12-23T00:54:17.759Z,16.63
2018-12-23T00:56:47.577Z,13.67
2018-12-23T00:59:17.455Z,18.27
2018-12-23T01:01:47.267Z,13.83
2018-12-23T01:04:17.057Z,15.77
2018-12-23T01:06:47.008Z,15.17
2018-12-23T01:09:17.066Z,15.87
2018-12-23T01:11:48.097Z,18.70
2018-12-23T01:14:17.988Z,15.23
2018-12-23T01:16:48.138Z,18.97
2018-12-23T01:19:18.047Z,13.87
2018-12-23T01:21:47.814Z,14.13
2018-12-23T01:24:17.600Z,17.30
2018-12-23T01:27:15.989Z,22.57
2018-12-23T01:29:48.226Z,15.83
2018-12-23T01:32:19.733Z,16.87
2018-12-23T01:34:51.473Z,14.93
2018-12-23T01:37:23.020Z,12.57
2018-12-23T01:39:55.505Z,13.73
2018-12-23T01:42:26.957Z,14.47
2018-12-23T01:44:58.501Z,17.30
2018-12-23T01:47:29.720Z,15.30
2018-12-23T01:50:01.504Z,16.90
2018-12-23T01:52:33.291Z,11.87
2018-12-23T01:55:05.069Z,17.33
2018-12-23T01:57:36.323Z,15.50
2018-12-23T02:00:09.230Z,16.07
2018-12-23T02:02:40.709Z,12.63
2018-12-23T02:05:12.274Z,14.67
2018-12-23T02:07:43.549Z,14.30
2018-12-23T02:10:14.746Z,15.63
2018-12-23T02:12:46.516Z,17.27
2018-12-23T02:15:18.072Z,14.33
2018-12-23T02:17:49.778Z,13.00
2018-12-23T02:20:20.991Z,15.53
2018-12-23T02:22:53.245Z,12.33
2018-12-23T02:25:24.828Z,12.07
2018-12-23T02:27:56.591Z,14.37
2018-12-23T02:30:27.833Z,17.93
2018-12-23T02:32:59.034Z,14.30
2018-12-23T02:35:30.214Z,17.40
2018-12-23T02:38:02.415Z,12.37
2018-12-23T02:40:33.911Z,14.57
2018-12-23T02:43:05.434Z,18.03
2018-12-23T02:45:37.233Z,14.03
2018-12-23T02:48:08.970Z,15.43
2018-12-23T02:50:40.225Z,12.03
2018-12-23T02:53:11.472Z,16.23
2018-12-23T02:55:42.972Z,14.90
2018-12-23T02:58:14.489Z,13.33
2018-12-23T03:00:46.044Z,12.20
2018-12-23T03:03:17.672Z,13.30
2018-12-23T03:05:49.188Z,13.20
2018-12-23T03:08:20.714Z,12.77
2018-12-23T03:10:52.164Z,9.77
2018-12-23T03:13:24.112Z,17.33
2018-12-23T03:15:55.531Z,14.87
2018-12-23T03:18:26.985Z,11.57
2018-12-23T03:20:58.262Z,15.43
2018-12-23T03:23:29.703Z,15.87
2018-12-23T03:26:00.963Z,12.17
2018-12-23T03:28:32.399Z,10.80
2018-12-23T03:31:03.672Z,12.10
2018-12-23T03:33:35.358Z,10.60
2018-12-23T03:36:15.014Z,12.33
2018-12-23T03:38:40.204Z,12.97
2018-12-23T03:41:11.701Z,11.03
2018-12-23T03:43:43.146Z,9.33
2018-12-23T03:46:14.444Z,12.63
2018-12-23T03:48:45.661Z,7.97
2018-12-23T03:51:17.224Z,14.37
2018-12-23T03:53:48.676Z,13.80
2018-12-23T03:56:20.161Z,13.37
2018-12-23T03:58:51.363Z,12.00
2018-12-23T04:01:23.508Z,15.17
2018-12-23T04:03:54.796Z,10.97
2018-12-23T04:06:25.991Z,12.50
2018-12-23T04:08:57.491Z,15.03
2018-12-23T04:11:29.481Z,11.27
2018-12-23T04:14:00.980Z,15.03
2018-12-23T04:16:32.208Z,12.43
2018-12-23T04:19:03.623Z,11.03
2018-12-23T04:21:35.357Z,10.67
2018-12-23T04:24:07.123Z,11.97
2018-12-23T04:26:38.306Z,10.97
2018-12-23T04:29:09.823Z,18.20
2018-12-23T04:31:41.019Z,15.90
2018-12-23T04:34:12.481Z,10.80
2018-12-23T04:36:43.899Z,11.97
2018-12-23T04:39:15.252Z,10.40
2018-12-23T04:41:46.689Z,7.93
2018-12-23T04:44:18.418Z,11.50
2018-12-23T04:46:49.865Z,10.20
2018-12-23T04:49:21.224Z,14.97
2018-12-23T04:51:52.598Z,11.40
2018-12-23T04:54:24.570Z,12.30
2018-12-23T04:56:56.510Z,13.23
2018-12-23T04:59:28.165Z,8.53
2018-12-23T05:01:59.613Z,10.20
2018-12-23T05:04:31.159Z,11.23
2018-12-23T05:07:02.644Z,9.10
2018-12-23T05:09:34.132Z,8.37
2018-12-23T05:12:05.697Z,10.97
2018-12-23T05:14:36.993Z,14.20
2018-12-23T05:17:09.695Z,13.13
2018-12-23T05:19:40.990Z,13.13
2018-12-23T05:22:12.909Z,10.23
2018-12-23T05:24:44.106Z,7.63
2018-12-23T05:27:15.516Z,9.30
2018-12-23T05:29:46.781Z,10.20
2018-12-23T05:32:17.981Z,7.93
2018-12-23T05:34:49.452Z,7.87
2018-12-23T05:37:20.828Z,9.30
2018-12-23T05:39:52.122Z,11.93
2018-12-23T05:42:23.293Z,10.73
2018-12-23T05:44:56.088Z,15.63
2018-12-23T05:47:27.339Z,12.03
2018-12-23T05:49:58.506Z,14.80
2018-12-23T05:52:29.985Z,11.87
2018-12-23T05:55:01.536Z,11.60
2018-12-23T05:57:32.712Z,10.60
2018-12-23T06:00:03.966Z,13.70
2018-12-23T06:02:35.217Z,10.40
2018-12-23T06:05:06.725Z,11.37
2018-12-23T06:07:38.482Z,14.27
2018-12-23T06:10:09.752Z,13.13
2018-12-23T06:12:41.189Z,17.50
2018-12-23T06:15:12.819Z,16.13
2018-12-23T06:17:44.601Z,13.37
2018-12-23T06:20:16.328Z,13.60
2018-12-23T06:22:48.011Z,14.77
2018-12-23T06:25:20.082Z,16.83
2018-12-23T06:27:51.646Z,15.47
2018-12-23T06:30:22.945Z,13.93
2018-12-23T06:32:54.638Z,14.50
2018-12-23T06:35:26.191Z,18.90
2018-12-23T06:37:58.275Z,16.40
2018-12-23T06:40:30.449Z,13.33
2018-12-23T06:43:01.665Z,11.40
2018-12-23T06:45:33.242Z,14.97
2018-12-23T06:48:07.718Z,17.17
2018-12-23T06:50:39.252Z,18.50
2018-12-23T06:53:10.735Z,16.03
2018-12-23T06:55:42.221Z,15.27
2018-12-23T06:58:13.910Z,15.17
2018-12-23T07:00:45.225Z,23.53
2018-12-23T07:03:16.722Z,20.07
2018-12-23T07:05:48.224Z,16.80
2018-12-23T07:08:20.180Z,20.10
2018-12-23T07:10:51.364Z,15.13
2018-12-23T07:13:23.141Z,16.83
2018-12-23T07:15:54.503Z,19.27
2018-12-23T07:18:25.723Z,17.43
2018-12-23T07:20:57.162Z,17.80
2018-12-23T07:23:29.383Z,17.40
2018-12-23T07:26:00.962Z,18.37
2018-12-23T07:28:33.024Z,14.37
2018-12-23T07:31:04.946Z,15.83
2018-12-23T07:33:36.860Z,21.20
2018-12-23T07:36:08.395Z,17.20
2018-12-23T07:38:40.173Z,16.47
2018-12-23T07:41:11.425Z,20.80
2018-12-23T07:43:43.440Z,17.17
2018-12-23T07:46:14.948Z,24.93
2018-12-23T07:48:46.304Z,19.73
2018-12-23T07:51:17.551Z,19.90
2018-12-23T07:53:50.545Z,23.97
2018-12-23T07:56:22.012Z,16.20
2018-12-23T07:58:53.760Z,15.53
2018-12-23T08:01:25.363Z,16.80
2018-12-23T08:03:57.254Z,16.10
2018-12-23T08:06:29.434Z,16.80
2018-12-23T08:09:01.236Z,17.93
2018-12-23T08:11:33.576Z,18.37
2018-12-23T08:14:04.919Z,22.43
2018-12-23T08:16:36.617Z,19.80
2018-12-23T08:19:08.354Z,25.50
2018-12-23T08:21:39.969Z,15.93
2018-12-23T08:24:11.764Z,25.50
2018-12-23T08:26:43.259Z,20.37
2018-12-23T08:29:15.020Z,20.83
2018-12-23T08:31:48.645Z,22.30
2018-12-23T08:34:20.547Z,16.27
2018-12-23T08:36:53.072Z,19.67
2018-12-23T08:39:24.905Z,24.07
2018-12-23T08:41:56.411Z,20.43
2018-12-23T08:44:28.202Z,20.53
2018-12-23T08:46:59.617Z,19.63
2018-12-23T08:49:31.592Z,22.03
2018-12-23T08:52:03.631Z,20.83
2018-12-23T08:54:35.151Z,19.23
2018-12-23T08:57:07.264Z,24.13
2018-12-23T08:59:39.521Z,23.13
2018-12-23T09:02:11.070Z,17.77
2018-12-23T09:04:42.687Z,18.90
2018-12-23T09:07:14.500Z,20.80
2018-12-23T09:09:45.721Z,17.90
2018-12-23T09:12:17.095Z,18.57
2018-12-23T09:14:48.974Z,22.40
2018-12-23T09:17:20.736Z,23.23
2018-12-23T09:19:52.517Z,17.20
2018-12-23T09:22:23.786Z,22.07
2018-12-23T09:24:55.225Z,20.20
2018-12-23T09:27:27.345Z,18.67
2018-12-23T09:29:58.852Z,19.10
2018-12-23T09:32:30.922Z,18.93
2018-12-23T09:35:02.907Z,19.40
2018-12-23T09:37:34.878Z,18.10
2018-12-23T09:40:06.166Z,18.07
2018-12-23T09:42:37.367Z,20.03
2018-12-23T09:45:08.755Z,22.73
2018-12-23T09:47:40.539Z,18.73
2018-12-23T09:50:12.307Z,21.40
2018-12-23T09:52:43.827Z,17.97
2018-12-23T09:55:15.762Z,20.73
2018-12-23T09:57:47.534Z,24.67
2018-12-23T10:00:18.768Z,19.57
2018-12-23T10:02:50.521Z,19.83
2018-12-23T10:05:22.185Z,18.30
2018-12-23T10:07:53.996Z,19.33
2018-12-23T10:10:28.504Z,21.00
2018-12-23T10:12:59.196Z,24.83
2018-12-23T10:15:31.064Z,18.07
2018-12-23T10:18:03.309Z,20.87
2018-12-23T10:20:35.306Z,19.40
2018-12-23T10:23:07.433Z,18.63
2018-12-23T10:25:39.377Z,24.33
2018-12-23T10:28:10.643Z,24.30
2018-12-23T10:30:42.448Z,23.37
2018-12-23T10:33:13.992Z,24.53
2018-12-23T10:35:45.793Z,22.93
2018-12-23T10:38:18.447Z,23.47
2018-12-23T10:40:50.641Z,19.00
2018-12-23T10:43:22.930Z,20.67
2018-12-23T10:45:54.564Z,23.87
2018-12-23T10:48:27.942Z,22.23
2018-12-23T10:50:59.487Z,22.23
2018-12-23T10:53:31.095Z,25.17
2018-12-23T10:56:03.090Z,25.03
2018-12-23T10:58:35.442Z,24.93
2018-12-23T11:01:06.942Z,23.47
2018-12-23T11:03:38.200Z,24.83
2018-12-23T11:06:10.132Z,25.53
2018-12-23T11:08:42.203Z,24.23
2018-12-23T11:11:13.967Z,23.37
2018-12-23T11:13:45.712Z,25.87
2018-12-23T11:16:18.373Z,23.13
2018-12-23T11:18:50.257Z,24.67
2018-12-23T11:21:21.810Z,23.40
2018-12-23T11:23:53.869Z,21.33
2018-12-23T11:26:25.089Z,21.70
2018-12-23T11:28:56.389Z,20.67
2018-12-23T11:31:28.962Z,24.57
2018-12-23T11:34:00.922Z,21.63
2018-12-23T11:36:32.461Z,22.30
2018-12-23T11:39:04.582Z,24.20
2018-12-23T11:41:36.041Z,16.87
2018-12-23T11:44:07.663Z,25.80
2018-12-23T11:46:39.285Z,25.50
2018-12-23T11:49:11.091Z,20.50
2018-12-23T11:51:43.560Z,28.10
2018-12-23T11:54:16.230Z,21.87
2018-12-23T11:56:47.998Z,27.53
2018-12-23T11:59:19.523Z,27.10
2018-12-23T12:01:50.771Z,23.20
2018-12-23T12:04:22.287Z,21.83
2018-12-23T12:06:53.877Z,22.87
2018-12-23T12:09:25.632Z,22.23
2018-12-23T12:11:57.288Z,31.00
2018-12-23T12:14:28.656Z,20.67
2018-12-23T12:17:00.111Z,25.27
2018-12-23T12:19:31.871Z,22.70
2018-12-23T12:22:03.144Z,25.70
2018-12-23T12:24:34.326Z,20.13
2018-12-23T12:27:06.248Z,20.67
2018-12-23T12:29:38.129Z,18.77
2018-12-23T12:32:10.241Z,24.57
2018-12-23T12:34:41.435Z,20.47
2018-12-23T12:37:13.545Z,22.00
2018-12-23T12:39:45.569Z,23.87
2018-12-23T12:42:17.356Z,25.80
2018-12-23T12:44:49.123Z,22.90
2018-12-23T12:47:21.017Z,26.50
2018-12-23T12:49:53.008Z,28.97
2018-12-23T12:52:24.486Z,27.23
2018-12-23T12:54:55.980Z,29.40
2018-12-23T12:57:27.365Z,28.47
2018-12-23T12:59:59.340Z,24.60
2018-12-23T13:02:31.108Z,25.67
2018-12-23T13:05:02.896Z,23.17
2018-12-23T13:07:34.347Z,21.80
2018-12-23T13:10:05.792Z,23.23
2018-12-23T13:12:37.762Z,21.83
2018-12-23T13:15:09.725Z,20.83
2018-12-23T13:17:41.261Z,24.87
2018-12-23T13:20:12.938Z,22.43
2018-12-23T13:22:44.594Z,26.07
2018-12-23T13:25:16.269Z,22.33
2018-12-23T13:27:48.148Z,24.33
2018-12-23T13:30:19.716Z,24.33
2018-12-23T13:32:51.048Z,23.73
2018-12-23T13:35:23.040Z,26.07
2018-12-23T13:37:54.853Z,18.10
2018-12-23T13:41:13.715Z,21.67
2018-12-23T13:44:28.044Z,19.33
2018-12-23T13:47:18.264Z,18.20
2018-12-23T13:50:24.107Z,20.73
2018-12-23T13:53:45.869Z,16.87
2018-12-23T13:56:58.211Z,16.87
2018-12-23T14:00:11.011Z,17.83
2018-12-23T14:02:58.509Z,13.30
2018-12-23T14:06:20.164Z,13.93
2018-12-23T14:09:08.379Z,19.53
2018-12-23T14:11:58.384Z,17.27
2018-12-23T14:14:29.588Z,19.17
2018-12-23T14:17:01.591Z,17.43
2018-12-23T14:19:34.071Z,14.30
2018-12-23T14:22:05.269Z,14.47
2018-12-23T14:24:36.861Z,11.67
2018-12-23T14:27:08.368Z,11.03
2018-12-23T14:29:40.056Z,10.70
2018-12-23T14:32:11.567Z,11.53
2018-12-23T14:34:43.531Z,12.97
2018-12-23T14:37:15.022Z,11.00
2018-12-23T14:39:46.697Z,14.10
2018-12-23T14:42:18.428Z,14.80
2018-12-23T14:44:49.943Z,12.60
2018-12-23T14:47:21.444Z,15.87
2018-12-23T14:49:52.955Z,10.87
2018-12-23T14:52:24.158Z,8.13
2018-12-23T14:54:56.288Z,9.07
2018-12-23T14:57:30.768Z,7.97
2018-12-23T15:00:02.172Z,13.37
2018-12-23T15:02:39.233Z,10.27
2018-12-23T15:05:11.280Z,11.93
2018-12-23T15:07:43.291Z,12.00
2018-12-23T15:10:14.539Z,10.67
2018-12-23T15:12:46.107Z,11.93
2018-12-23T15:15:17.710Z,9.97
2018-12-23T15:17:49.719Z,12.53
2018-12-23T15:20:21.499Z,9.33
2018-12-23T15:22:52.733Z,10.47
2018-12-23T15:25:24.157Z,7.87
2018-12-23T15:27:56.138Z,8.87
2018-12-23T15:30:27.413Z,32.80
2018-12-23T15:32:58.943Z,8.97
2018-12-23T15:35:30.527Z,17.97
2018-12-23T15:38:02.152Z,11.53
2018-12-23T15:40:33.458Z,12.03
2018-12-23T15:43:05.318Z,12.43
2018-12-23T15:45:36.969Z,11.07
2018-12-23T15:48:08.649Z,10.13
2018-12-23T15:50:40.122Z,8.77
2018-12-23T15:53:11.321Z,10.73
2018-12-23T15:55:42.607Z,9.80
2018-12-23T15:58:14.216Z,12.30
2018-12-23T16:00:45.556Z,11.07
2018-12-23T16:03:17.342Z,16.37
2018-12-23T16:05:49.070Z,13.17
2018-12-23T16:08:21.745Z,11.80
2018-12-23T16:10:52.996Z,10.87
2018-12-23T16:13:24.237Z,10.20
2018-12-23T16:15:56.113Z,9.93
2018-12-23T16:18:28.160Z,11.67
2018-12-23T16:20:59.371Z,9.07
2018-12-23T16:23:31.252Z,11.10
2018-12-23T16:26:03.121Z,8.63
2018-12-23T16:28:34.905Z,8.03
2018-12-23T16:31:06.349Z,8.07
2018-12-23T16:33:38.286Z,7.67
2018-12-23T16:36:09.840Z,7.60
2018-12-23T16:38:41.087Z,7.97
2018-12-23T16:41:12.278Z,8.87
2018-12-23T16:43:44.134Z,7.50
2018-12-23T16:46:15.341Z,7.63
2018-12-23T16:48:46.591Z,7.30
2018-12-23T16:51:18.451Z,7.90
2018-12-23T16:53:49.908Z,6.73
2018-12-23T16:56:21.668Z,6.73
2018-12-23T16:58:52.944Z,6.77
2018-12-23T17:01:24.564Z,5.87
2018-12-23T17:03:56.019Z,8.23
2018-12-23T17:06:27.625Z,8.57
2018-12-23T17:08:58.835Z,6.97
2018-12-23T17:11:30.418Z,9.33
2018-12-23T17:14:02.345Z,7.50
2018-12-23T17:16:33.887Z,8.97
2018-12-23T17:19:05.381Z,8.20
2018-12-23T17:21:37.011Z,10.67
2018-12-23T17:24:09.066Z,8.80
2018-12-23T17:26:40.951Z,11.30
2018-12-23T17:29:12.692Z,10.20
2018-12-23T17:31:44.893Z,9.70
2018-12-23T17:34:16.374Z,10.97
2018-12-23T17:36:47.858Z,11.80
2018-12-23T17:39:19.645Z,12.43
2018-12-23T17:41:51.698Z,10.40
2018-12-23T17:44:23.365Z,12.53
2018-12-23T17:46:54.645Z,12.13
2018-12-23T17:49:26.968Z,17.57
2018-12-23T17:51:58.615Z,15.13
2018-12-23T17:54:30.171Z,12.07
2018-12-23T17:57:02.645Z,12.23
2018-12-23T17:59:33.832Z,10.60
2018-12-23T18:02:05.561Z,15.57
2018-12-23T18:04:37.320Z,14.00
2018-12-23T18:07:08.893Z,14.20
2018-12-23T18:09:40.993Z,12.77
2018-12-23T18:12:12.267Z,14.37
2018-12-23T18:14:43.740Z,11.27
2018-12-23T18:17:15.700Z,11.17
2018-12-23T18:19:47.374Z,11.53
2018-12-23T18:22:19.071Z,10.97
2018-12-23T18:24:50.532Z,10.03
2018-12-23T18:27:22.346Z,11.37
2018-12-23T18:29:54.101Z,11.60
2018-12-23T18:32:25.753Z,11.17
2018-12-23T18:34:57.294Z,11.03
2018-12-23T18:37:28.533Z,12.07
2018-12-23T18:40:00.399Z,12.87
2018-12-23T18:42:31.641Z,11.17
2018-12-23T18:45:03.376Z,10.37
2018-12-23T18:47:34.848Z,9.33
2018-12-23T18:50:06.514Z,11.60
2018-12-23T18:52:38.275Z,8.13
2018-12-23T18:55:09.857Z,9.30
2018-12-23T18:57:46.597Z,7.30
2018-12-23T19:00:18.152Z,7.03
2018-12-23T19:02:55.563Z,7.00
2018-12-23T19:05:27.095Z,6.60
2018-12-23T19:08:02.438Z,7.50
2018-12-23T19:11:27.076Z,12.03
2018-12-23T19:14:34.398Z,16.53
2018-12-23T19:17:41.745Z,8.30
2018-12-23T19:20:48.250Z,7.00
2018-12-23T19:23:59.889Z,6.00
2018-12-23T19:27:04.552Z,6.20
2018-12-23T19:30:04.038Z,5.77
2018-12-23T19:33:08.076Z,5.90
2018-12-23T19:36:15.768Z,7.73
2018-12-23T19:39:26.656Z,6.63
2018-12-23T19:42:50.610Z,7.57
2018-12-23T19:46:00.420Z,5.77
2018-12-23T19:49:14.305Z,5.90
2018-12-23T19:52:25.609Z,5.20
2018-12-23T19:55:50.398Z,5.20
2018-12-23T19:59:02.081Z,4.63
2018-12-23T20:01:57.391Z,4.43
2018-12-23T20:04:59.072Z,5.20
2018-12-23T20:07:59.235Z,6.43
2018-12-23T20:11:36.086Z,4.80
2018-12-23T20:14:37.353Z,4.63
2018-12-23T20:17:28.456Z,4.53
2018-12-23T20:20:25.194Z,4.73
2018-12-23T20:23:41.114Z,5.10
2018-12-23T20:27:05.546Z,4.97
2018-12-23T20:30:13.566Z,3.80
2018-12-23T20:33:21.602Z,3.67
2018-12-23T20:36:33.512Z,3.77
2018-12-23T20:39:47.213Z,5.80
2018-12-23T20:42:59.037Z,5.07
2018-12-23T20:46:07.017Z,3.60
2018-12-23T20:49:16.821Z,5.20
2018-12-23T20:52:37.698Z,4.73
2018-12-23T20:55:39.364Z,5.47
2018-12-23T20:58:36.003Z,4.47
2018-12-23T21:01:44.745Z,5.17
2018-12-23T21:04:43.886Z,4.50
2018-12-23T21:08:04.847Z,7.00
2018-12-23T21:11:18.619Z,6.37
2018-12-23T21:14:28.373Z,4.80
2018-12-23T21:17:53.208Z,3.60
2018-12-23T21:20:48.192Z,4.23
2018-12-23T21:24:21.808Z,3.40
2018-12-23T21:27:36.513Z,3.20
2018-12-23T21:30:37.773Z,2.73
2018-12-23T21:33:32.380Z,2.70
2018-12-23T21:36:21.239Z,2.57
2018-12-23T21:39:30.337Z,2.70
2018-12-23T21:42:27.267Z,2.80
2018-12-23T21:45:34.030Z,2.70
2018-12-23T21:48:43.716Z,3.00
2018-12-23T21:51:55.023Z,3.03
2018-12-23T21:55:06.380Z,3.10
2018-12-23T21:58:16.060Z,2.80
2018-12-23T22:01:27.413Z,13.03
2018-12-23T22:04:37.090Z,3.40
2018-12-23T22:07:48.433Z,4.03
2018-12-23T22:10:57.890Z,5.23
2018-12-23T22:13:30.983Z,4.53
2018-12-23T22:16:03.964Z,3.57
2018-12-23T22:18:35.525Z,2.70
2018-12-23T22:21:07.204Z,3.67
2018-12-23T22:23:38.619Z,3.37
2018-12-23T22:26:10.395Z,4.20
2018-12-23T22:28:42.334Z,4.37
2018-12-23T22:31:13.932Z,3.00
2018-12-23T22:33:45.963Z,4.50
2018-12-23T22:36:17.849Z,2.30
2018-12-23T22:38:51.363Z,2.10
2018-12-23T22:41:25.749Z,2.17
2018-12-23T22:43:57.770Z,2.30
2018-12-23T22:46:29.228Z,1.90
2018-12-23T22:49:00.423Z,1.80
2018-12-23T22:51:32.877Z,1.80
2018-12-23T22:54:04.579Z,2.00
2018-12-23T22:56:36.250Z,2.90
2018-12-23T22:59:07.941Z,2.83
2018-12-23T23:01:40.234Z,1.80
2018-12-23T23:04:12.052Z,4.10
2018-12-23T23:06:43.799Z,2.27
2018-12-23T23:09:15.543Z,2.10
2018-12-23T23:11:50.045Z,1.93
2018-12-23T23:14:21.005Z,3.23
2018-12-23T23:16:52.732Z,3.90
2018-12-23T23:19:24.235Z,1.67
2018-12-23T23:21:56.247Z,1.33
2018-12-23T23:24:28.000Z,1.43
2018-12-23T23:26:59.787Z,1.20
2018-12-23T23:29:33.383Z,1.50
2018-12-23T23:32:04.973Z,1.30
2018-12-23T23:34:36.524Z,1.43
2018-12-23T23:37:08.300Z,1.33
2018-12-23T23:39:39.719Z,1.30
2018-12-23T23:42:11.221Z,1.53
2018-12-23T23:44:42.891Z,1.07
2018-12-23T23:47:14.091Z,1.43
2018-12-23T23:49:46.001Z,1.00
2018-12-23T23:52:17.793Z,69.80
2018-12-23T23:54:49.819Z,1.10
2018-12-23T23:57:21.546Z,1.07
2018-12-23T23:59:53.087Z,1.03
